الصفحة الرئيسية
METAR-TAF:

METAR-TAF

مطار :

بيرم, روسيا

دائرة عرض: 58-00N, خط طول: 056-15E, ارتفاع: 170 متر

مراقبة الطقس الحالي

تاريخ ووقت الإصدار 18 دقيقة قبل الساعة 01:00UTC
ريح 8 عقدة من الشمال الغربي, الاتجاه يتراوح بين الغرب و الشمال/الشمال الغربي
درجة الحرارة 16°درجة مئوية
الرطوبة 88%
ضغط 1012 hPa
الرؤية 10 كم أو أكثر
غيوم مفككة على ارتفاع 5000 قدم, مزنة ركامية.
زخات من الأمطار الخفيفة

METAR: USPP 180100Z 31004MPS 270V340 9999 -SHRA BKN050CB 16/14 Q1012 R21/290348 TEMPO VRB15MPS 3200 -TSRA SQ BKN011CB RMK QFE749

زمن: 06:18 (01:18 UTC)

توقعات

تاريخ ووقت الإصدار 2ساعات و 23 دقيقة قبل الساعة 22:55UTC
التوقعات صالحة من18 الساعة 00 UTC إلى 18 الساعة 24 UTC
ريح 6 عقدة من الغرب/الجنوب الغربي تتزايد حتى 19 عقدة
الرؤية: 8000 متر
غيوم متفرقة على ارتفاع 3000 قدم
مؤقت
من 18 الساعة 00 UTC إلى 18 الساعة 15 UTC
غيوم مفككة على ارتفاع 1600 قدم, مزنة ركامية.
عاصفة رعدية, مطر خفيف
أصبح
من 18 الساعة 03 UTC إلى 18 الساعة 04 UTC
ريح 6 عقدة من الشمال الغربي تتزايد حتى 27 عقدة

TAF: USPP 172255Z 1800/1824 24003G10MPS 8000 SCT030 TEMPO 1800/1815 -TSRA BKN016CB BECMG 1803/1804 32003G14MPS

أرصاد الطقس والتوقعات من أكثر من 4000 مطار (تقارير الطقس للمطار METAR والتنبؤ بالطقس بالمطارTAF).

المحطات المتاحة هي النقط الصفراء والحمراء على الخريطة.

حرك المؤشر فوق النقطة لمعرفة اسم المحطة.

ثم انقر لمعرفة أرصاد وتوقعات الطقس.

لتغيير الخارطة: اضغط على الأزرار الخضراء مع رمز الصليب الأسود للتكبير. على الزر الأخضر مع شرطة للتصغير، أو على الأسهم الخضراء للخرائط المجاورة.


METAR-TAF: